sensor_id;sensor_type;location;lat;lon;timestamp;P1;durP1;ratioP1;P2;durP2;ratioP2
21301;SDS011;10810;48.270;9.996;2022-08-06T00:00:00;1.85;;;0.77;;
21301;SDS011;10810;48.270;9.996;2022-08-06T00:02:32;2.10;;;0.80;;
21301;SDS011;10810;48.270;9.996;2022-08-06T00:05:06;2.30;;;0.80;;
21301;SDS011;10810;48.270;9.996;2022-08-06T00:07:37;2.15;;;0.90;;
21301;SDS011;10810;48.270;9.996;2022-08-06T00:10:12;1.60;;;0.85;;
21301;SDS011;10810;48.270;9.996;2022-08-06T00:12:41;1.35;;;0.80;;
21301;SDS011;10810;48.270;9.996;2022-08-06T00:15:13;1.88;;;1.00;;
21301;SDS011;10810;48.270;9.996;2022-08-06T00:17:54;1.80;;;1.10;;
21301;SDS011;10810;48.270;9.996;2022-08-06T00:20:21;1.60;;;0.80;;
21301;SDS011;10810;48.270;9.996;2022-08-06T00:22:52;3.17;;;0.60;;
21301;SDS011;10810;48.270;9.996;2022-08-06T00:25:25;1.58;;;0.80;;
21301;SDS011;10810;48.270;9.996;2022-08-06T00:27:55;1.90;;;0.90;;
21301;SDS011;10810;48.270;9.996;2022-08-06T00:30:22;1.05;;;0.70;;
21301;SDS011;10810;48.270;9.996;2022-08-06T00:32:49;0.85;;;0.65;;
21301;SDS011;10810;48.270;9.996;2022-08-06T00:35:28;1.92;;;0.90;;
21301;SDS011;10810;48.270;9.996;2022-08-06T00:38:03;0.90;;;0.70;;
21301;SDS011;10810;48.270;9.996;2022-08-06T00:40:35;1.40;;;0.80;;
21301;SDS011;10810;48.270;9.996;2022-08-06T00:43:04;1.23;;;0.60;;
21301;SDS011;10810;48.270;9.996;2022-08-06T00:45:32;1.83;;;1.00;;
21301;SDS011;10810;48.270;9.996;2022-08-06T00:48:00;1.05;;;0.80;;
21301;SDS011;10810;48.270;9.996;2022-08-06T00:50:29;1.95;;;0.98;;
21301;SDS011;10810;48.270;9.996;2022-08-06T00:53:05;1.20;;;0.77;;
21301;SDS011;10810;48.270;9.996;2022-08-06T00:55:35;0.98;;;0.70;;
21301;SDS011;10810;48.270;9.996;2022-08-06T00:58:04;1.67;;;0.77;;
21301;SDS011;10810;48.270;9.996;2022-08-06T01:00:37;1.27;;;0.80;;
21301;SDS011;10810;48.270;9.996;2022-08-06T01:03:06;1.25;;;0.85;;
21301;SDS011;10810;48.270;9.996;2022-08-06T01:05:37;2.17;;;0.90;;
21301;SDS011;10810;48.270;9.996;2022-08-06T01:08:10;1.63;;;1.00;;
21301;SDS011;10810;48.270;9.996;2022-08-06T01:10:41;1.17;;;0.90;;
21301;SDS011;10810;48.270;9.996;2022-08-06T01:13:12;1.50;;;0.90;;
21301;SDS011;10810;48.270;9.996;2022-08-06T01:16:01;1.70;;;1.10;;
21301;SDS011;10810;48.270;9.996;2022-08-06T01:18:43;1.63;;;1.10;;
21301;SDS011;10810;48.270;9.996;2022-08-06T01:22:00;1.48;;;0.98;;
21301;SDS011;10810;48.270;9.996;2022-08-06T01:27:42;2.13;;;0.82;;
21301;SDS011;10810;48.270;9.996;2022-08-06T01:30:15;2.10;;;0.90;;
21301;SDS011;10810;48.270;9.996;2022-08-06T01:33:00;1.45;;;0.90;;
21301;SDS011;10810;48.270;9.996;2022-08-06T01:35:41;2.03;;;1.23;;
21301;SDS011;10810;48.270;9.996;2022-08-06T01:38:15;2.50;;;1.20;;
21301;SDS011;10810;48.270;9.996;2022-08-06T01:40:53;2.22;;;1.08;;
21301;SDS011;10810;48.270;9.996;2022-08-06T01:46:23;3.90;;;1.30;;
21301;SDS011;10810;48.270;9.996;2022-08-06T01:49:05;1.90;;;1.23;;
21301;SDS011;10810;48.270;9.996;2022-08-06T01:51:37;3.28;;;1.30;;
21301;SDS011;10810;48.270;9.996;2022-08-06T01:54:26;2.80;;;1.70;;
21301;SDS011;10810;48.270;9.996;2022-08-06T01:57:09;2.78;;;1.45;;
21301;SDS011;10810;48.270;9.996;2022-08-06T01:59:50;2.30;;;1.40;;
21301;SDS011;10810;48.270;9.996;2022-08-06T02:02:29;2.90;;;1.55;;
21301;SDS011;10810;48.270;9.996;2022-08-06T02:04:59;2.75;;;1.52;;
21301;SDS011;10810;48.270;9.996;2022-08-06T02:07:41;2.97;;;1.70;;
21301;SDS011;10810;48.270;9.996;2022-08-06T02:10:12;2.72;;;1.30;;
21301;SDS011;10810;48.270;9.996;2022-08-06T02:12:45;2.28;;;1.40;;
21301;SDS011;10810;48.270;9.996;2022-08-06T02:15:19;2.28;;;1.40;;
21301;SDS011;10810;48.270;9.996;2022-08-06T02:17:52;2.35;;;1.50;;
21301;SDS011;10810;48.270;9.996;2022-08-06T02:20:42;3.63;;;1.52;;
21301;SDS011;10810;48.270;9.996;2022-08-06T02:23:30;2.03;;;1.17;;
21301;SDS011;10810;48.270;9.996;2022-08-06T02:26:03;2.55;;;1.40;;
21301;SDS011;10810;48.270;9.996;2022-08-06T02:28:44;2.55;;;1.52;;
21301;SDS011;10810;48.270;9.996;2022-08-06T02:31:26;2.38;;;1.50;;
21301;SDS011;10810;48.270;9.996;2022-08-06T02:33:53;2.13;;;1.45;;
21301;SDS011;10810;48.270;9.996;2022-08-06T02:36:24;2.70;;;1.30;;
21301;SDS011;10810;48.270;9.996;2022-08-06T02:39:10;1.85;;;1.20;;
21301;SDS011;10810;48.270;9.996;2022-08-06T02:41:56;2.75;;;1.30;;
21301;SDS011;10810;48.270;9.996;2022-08-06T02:44:37;2.92;;;1.40;;
21301;SDS011;10810;48.270;9.996;2022-08-06T02:47:17;2.08;;;1.40;;
21301;SDS011;10810;48.270;9.996;2022-08-06T02:50:24;3.03;;;1.58;;
21301;SDS011;10810;48.270;9.996;2022-08-06T02:53:13;1.92;;;1.15;;
21301;SDS011;10810;48.270;9.996;2022-08-06T02:55:48;1.98;;;1.27;;
21301;SDS011;10810;48.270;9.996;2022-08-06T02:58:22;3.97;;;1.50;;
21301;SDS011;10810;48.270;9.996;2022-08-06T03:00:54;1.98;;;1.30;;
21301;SDS011;10810;48.270;9.996;2022-08-06T03:03:26;2.63;;;1.20;;
21301;SDS011;10810;48.270;9.996;2022-08-06T03:05:58;3.20;;;1.40;;
21301;SDS011;10810;48.270;9.996;2022-08-06T03:08:32;3.85;;;1.33;;
21301;SDS011;10810;48.270;9.996;2022-08-06T03:11:12;2.08;;;1.27;;
21301;SDS011;10810;48.270;9.996;2022-08-06T03:13:44;1.67;;;1.40;;
21301;SDS011;10810;48.270;9.996;2022-08-06T03:16:27;1.80;;;1.25;;
21301;SDS011;10810;48.270;9.996;2022-08-06T03:19:06;3.58;;;1.58;;
21301;SDS011;10810;48.270;9.996;2022-08-06T03:21:52;2.17;;;1.20;;
21301;SDS011;10810;48.270;9.996;2022-08-06T03:24:23;1.38;;;1.02;;
21301;SDS011;10810;48.270;9.996;2022-08-06T03:26:53;1.45;;;1.20;;
21301;SDS011;10810;48.270;9.996;2022-08-06T03:29:25;2.45;;;1.40;;
21301;SDS011;10810;48.270;9.996;2022-08-06T03:32:09;1.55;;;1.20;;
21301;SDS011;10810;48.270;9.996;2022-08-06T03:34:58;1.40;;;1.05;;
21301;SDS011;10810;48.270;9.996;2022-08-06T03:40:28;2.55;;;1.55;;
21301;SDS011;10810;48.270;9.996;2022-08-06T03:43:02;2.08;;;1.40;;
21301;SDS011;10810;48.270;9.996;2022-08-06T03:45:35;1.52;;;1.10;;
21301;SDS011;10810;48.270;9.996;2022-08-06T03:48:06;1.35;;;1.00;;
21301;SDS011;10810;48.270;9.996;2022-08-06T03:50:40;2.90;;;1.20;;
21301;SDS011;10810;48.270;9.996;2022-08-06T03:53:20;2.10;;;1.15;;
21301;SDS011;10810;48.270;9.996;2022-08-06T03:56:01;1.70;;;1.30;;
21301;SDS011;10810;48.270;9.996;2022-08-06T03:58:41;2.03;;;1.20;;
21301;SDS011;10810;48.270;9.996;2022-08-06T04:01:16;2.60;;;1.20;;
21301;SDS011;10810;48.270;9.996;2022-08-06T04:03:57;3.00;;;1.40;;
21301;SDS011;10810;48.270;9.996;2022-08-06T04:06:41;2.50;;;1.58;;
21301;SDS011;10810;48.270;9.996;2022-08-06T04:09:19;1.80;;;1.30;;
21301;SDS011;10810;48.270;9.996;2022-08-06T04:12:02;2.83;;;1.20;;
21301;SDS011;10810;48.270;9.996;2022-08-06T04:14:49;2.13;;;1.30;;
21301;SDS011;10810;48.270;9.996;2022-08-06T04:17:20;2.58;;;1.15;;
21301;SDS011;10810;48.270;9.996;2022-08-06T04:20:14;1.35;;;1.10;;
21301;SDS011;10810;48.270;9.996;2022-08-06T04:25:39;1.70;;;1.30;;
21301;SDS011;10810;48.270;9.996;2022-08-06T04:28:53;1.42;;;1.15;;
21301;SDS011;10810;48.270;9.996;2022-08-06T04:31:30;1.48;;;1.15;;
21301;SDS011;10810;48.270;9.996;2022-08-06T04:34:33;2.80;;;1.20;;
21301;SDS011;10810;48.270;9.996;2022-08-06T04:37:12;2.20;;;1.23;;
21301;SDS011;10810;48.270;9.996;2022-08-06T04:43:08;1.08;;;0.90;;
21301;SDS011;10810;48.270;9.996;2022-08-06T04:45:37;1.52;;;1.10;;
21301;SDS011;10810;48.270;9.996;2022-08-06T04:48:10;2.47;;;1.42;;
21301;SDS011;10810;48.270;9.996;2022-08-06T04:50:50;1.20;;;1.00;;
21301;SDS011;10810;48.270;9.996;2022-08-06T04:53:17;1.55;;;1.13;;
21301;SDS011;10810;48.270;9.996;2022-08-06T04:55:54;3.50;;;1.27;;
21301;SDS011;10810;48.270;9.996;2022-08-06T04:58:22;1.75;;;1.25;;
21301;SDS011;10810;48.270;9.996;2022-08-06T05:00:51;2.70;;;1.20;;
21301;SDS011;10810;48.270;9.996;2022-08-06T05:03:21;1.48;;;1.13;;
21301;SDS011;10810;48.270;9.996;2022-08-06T05:05:57;3.08;;;1.33;;
21301;SDS011;10810;48.270;9.996;2022-08-06T05:08:31;2.08;;;1.23;;
21301;SDS011;10810;48.270;9.996;2022-08-06T05:11:07;2.25;;;1.30;;
21301;SDS011;10810;48.270;9.996;2022-08-06T05:13:39;1.60;;;1.15;;
21301;SDS011;10810;48.270;9.996;2022-08-06T05:16:11;1.70;;;1.25;;
21301;SDS011;10810;48.270;9.996;2022-08-06T05:18:43;1.25;;;1.05;;
21301;SDS011;10810;48.270;9.996;2022-08-06T05:21:18;2.88;;;1.40;;
21301;SDS011;10810;48.270;9.996;2022-08-06T05:23:50;2.22;;;1.30;;
21301;SDS011;10810;48.270;9.996;2022-08-06T05:26:21;1.83;;;1.23;;
21301;SDS011;10810;48.270;9.996;2022-08-06T05:28:49;1.95;;;1.30;;
21301;SDS011;10810;48.270;9.996;2022-08-06T05:31:28;3.65;;;1.25;;
21301;SDS011;10810;48.270;9.996;2022-08-06T05:33:56;1.75;;;1.10;;
21301;SDS011;10810;48.270;9.996;2022-08-06T05:36:23;3.63;;;1.25;;
21301;SDS011;10810;48.270;9.996;2022-08-06T05:38:55;2.65;;;1.42;;
21301;SDS011;10810;48.270;9.996;2022-08-06T05:41:25;2.13;;;1.30;;
21301;SDS011;10810;48.270;9.996;2022-08-06T05:44:04;2.22;;;1.35;;
21301;SDS011;10810;48.270;9.996;2022-08-06T05:46:33;1.50;;;1.20;;
21301;SDS011;10810;48.270;9.996;2022-08-06T05:49:03;1.92;;;1.08;;
21301;SDS011;10810;48.270;9.996;2022-08-06T05:51:35;2.10;;;1.33;;
21301;SDS011;10810;48.270;9.996;2022-08-06T05:54:15;3.92;;;1.30;;
21301;SDS011;10810;48.270;9.996;2022-08-06T05:56:49;2.13;;;1.23;;
21301;SDS011;10810;48.270;9.996;2022-08-06T05:59:35;4.03;;;1.25;;
21301;SDS011;10810;48.270;9.996;2022-08-06T06:02:08;1.63;;;1.20;;
21301;SDS011;10810;48.270;9.996;2022-08-06T06:04:52;2.35;;;1.45;;
21301;SDS011;10810;48.270;9.996;2022-08-06T06:07:27;1.52;;;1.15;;
21301;SDS011;10810;48.270;9.996;2022-08-06T06:09:57;1.85;;;1.30;;
21301;SDS011;10810;48.270;9.996;2022-08-06T06:12:26;1.75;;;1.20;;
21301;SDS011;10810;48.270;9.996;2022-08-06T06:14:54;2.63;;;1.40;;
21301;SDS011;10810;48.270;9.996;2022-08-06T06:20:27;2.45;;;1.50;;
21301;SDS011;10810;48.270;9.996;2022-08-06T06:23:02;2.13;;;1.50;;
21301;SDS011;10810;48.270;9.996;2022-08-06T06:25:37;2.55;;;1.30;;
21301;SDS011;10810;48.270;9.996;2022-08-06T06:28:15;2.85;;;1.70;;
21301;SDS011;10810;48.270;9.996;2022-08-06T06:30:58;1.88;;;1.30;;
21301;SDS011;10810;48.270;9.996;2022-08-06T06:33:39;2.88;;;1.50;;
21301;SDS011;10810;48.270;9.996;2022-08-06T06:36:12;2.50;;;1.33;;
21301;SDS011;10810;48.270;9.996;2022-08-06T06:38:51;2.95;;;1.40;;
21301;SDS011;10810;48.270;9.996;2022-08-06T06:41:32;2.70;;;1.40;;
21301;SDS011;10810;48.270;9.996;2022-08-06T06:44:18;3.88;;;1.67;;
21301;SDS011;10810;48.270;9.996;2022-08-06T06:46:55;1.80;;;1.40;;
21301;SDS011;10810;48.270;9.996;2022-08-06T06:51:16;2.38;;;1.60;;
21301;SDS011;10810;48.270;9.996;2022-08-06T06:52:34;2.13;;;1.50;;
21301;SDS011;10810;48.270;9.996;2022-08-06T06:55:26;2.75;;;1.40;;
21301;SDS011;10810;48.270;9.996;2022-08-06T07:04:49;2.92;;;1.50;;
21301;SDS011;10810;48.270;9.996;2022-08-06T07:07:27;2.72;;;1.63;;
21301;SDS011;10810;48.270;9.996;2022-08-06T07:10:19;2.45;;;1.50;;
21301;SDS011;10810;48.270;9.996;2022-08-06T07:12:50;2.10;;;1.70;;
21301;SDS011;10810;48.270;9.996;2022-08-06T07:16:37;2.25;;;1.65;;
21301;SDS011;10810;48.270;9.996;2022-08-06T07:19:15;2.55;;;1.50;;
21301;SDS011;10810;48.270;9.996;2022-08-06T07:21:35;2.13;;;1.65;;
21301;SDS011;10810;48.270;9.996;2022-08-06T07:24:31;2.72;;;1.70;;
21301;SDS011;10810;48.270;9.996;2022-08-06T07:27:05;4.05;;;1.83;;
21301;SDS011;10810;48.270;9.996;2022-08-06T07:29:49;3.22;;;1.63;;
21301;SDS011;10810;48.270;9.996;2022-08-06T07:32:16;3.75;;;1.70;;
21301;SDS011;10810;48.270;9.996;2022-08-06T07:34:44;2.42;;;1.80;;
21301;SDS011;10810;48.270;9.996;2022-08-06T07:39:57;2.90;;;1.80;;
21301;SDS011;10810;48.270;9.996;2022-08-06T07:42:27;3.53;;;1.52;;
21301;SDS011;10810;48.270;9.996;2022-08-06T07:44:56;2.85;;;2.00;;
21301;SDS011;10810;48.270;9.996;2022-08-06T07:47:27;2.58;;;1.80;;
21301;SDS011;10810;48.270;9.996;2022-08-06T07:49:59;2.85;;;1.85;;
21301;SDS011;10810;48.270;9.996;2022-08-06T07:52:40;4.28;;;1.80;;
21301;SDS011;10810;48.270;9.996;2022-08-06T07:55:28;4.47;;;2.28;;
21301;SDS011;10810;48.270;9.996;2022-08-06T07:58:21;4.53;;;2.00;;
21301;SDS011;10810;48.270;9.996;2022-08-06T08:00:50;4.28;;;1.85;;
21301;SDS011;10810;48.270;9.996;2022-08-06T08:03:32;3.10;;;1.70;;
21301;SDS011;10810;48.270;9.996;2022-08-06T08:06:46;4.05;;;1.80;;
21301;SDS011;10810;48.270;9.996;2022-08-06T08:09:16;3.58;;;2.05;;
21301;SDS011;10810;48.270;9.996;2022-08-06T08:11:46;3.50;;;2.05;;
21301;SDS011;10810;48.270;9.996;2022-08-06T08:14:18;3.65;;;2.10;;
21301;SDS011;10810;48.270;9.996;2022-08-06T08:16:47;5.97;;;2.10;;
21301;SDS011;10810;48.270;9.996;2022-08-06T08:19:26;3.72;;;2.28;;
21301;SDS011;10810;48.270;9.996;2022-08-06T08:22:10;4.63;;;2.20;;
21301;SDS011;10810;48.270;9.996;2022-08-06T08:25:07;4.20;;;2.17;;
21301;SDS011;10810;48.270;9.996;2022-08-06T08:27:55;2.75;;;1.90;;
21301;SDS011;10810;48.270;9.996;2022-08-06T08:30:32;3.47;;;2.20;;
21301;SDS011;10810;48.270;9.996;2022-08-06T08:33:09;3.88;;;2.10;;
21301;SDS011;10810;48.270;9.996;2022-08-06T08:36:14;3.20;;;1.90;;
21301;SDS011;10810;48.270;9.996;2022-08-06T08:38:55;3.85;;;2.20;;
21301;SDS011;10810;48.270;9.996;2022-08-06T08:42:09;4.57;;;2.05;;
21301;SDS011;10810;48.270;9.996;2022-08-06T08:44:59;3.25;;;2.30;;
21301;SDS011;10810;48.270;9.996;2022-08-06T08:47:29;3.63;;;2.22;;
21301;SDS011;10810;48.270;9.996;2022-08-06T08:50:25;4.18;;;2.10;;
21301;SDS011;10810;48.270;9.996;2022-08-06T08:52:58;3.30;;;2.03;;
21301;SDS011;10810;48.270;9.996;2022-08-06T08:55:53;3.85;;;2.30;;
21301;SDS011;10810;48.270;9.996;2022-08-06T08:58:31;5.80;;;2.45;;
21301;SDS011;10810;48.270;9.996;2022-08-06T09:01:02;3.70;;;2.30;;
21301;SDS011;10810;48.270;9.996;2022-08-06T09:03:36;5.53;;;2.38;;
21301;SDS011;10810;48.270;9.996;2022-08-06T09:06:16;3.42;;;2.20;;
21301;SDS011;10810;48.270;9.996;2022-08-06T09:08:48;3.30;;;2.38;;
21301;SDS011;10810;48.270;9.996;2022-08-06T09:11:32;4.45;;;2.65;;
21301;SDS011;10810;48.270;9.996;2022-08-06T09:14:05;3.65;;;2.40;;
21301;SDS011;10810;48.270;9.996;2022-08-06T09:16:36;5.18;;;2.58;;
21301;SDS011;10810;48.270;9.996;2022-08-06T09:19:04;4.45;;;2.20;;
21301;SDS011;10810;48.270;9.996;2022-08-06T09:21:31;4.75;;;2.67;;
21301;SDS011;10810;48.270;9.996;2022-08-06T09:24:00;5.18;;;2.45;;
21301;SDS011;10810;48.270;9.996;2022-08-06T09:26:37;5.57;;;2.58;;
21301;SDS011;10810;48.270;9.996;2022-08-06T09:29:16;4.07;;;2.50;;
21301;SDS011;10810;48.270;9.996;2022-08-06T09:31:50;5.85;;;2.90;;
21301;SDS011;10810;48.270;9.996;2022-08-06T09:34:30;5.32;;;2.88;;
21301;SDS011;10810;48.270;9.996;2022-08-06T09:37:14;4.07;;;2.60;;
21301;SDS011;10810;48.270;9.996;2022-08-06T09:40:12;4.82;;;2.72;;
21301;SDS011;10810;48.270;9.996;2022-08-06T09:42:56;6.18;;;3.03;;
21301;SDS011;10810;48.270;9.996;2022-08-06T09:45:50;7.47;;;2.35;;
21301;SDS011;10810;48.270;9.996;2022-08-06T09:48:33;4.65;;;2.78;;
21301;SDS011;10810;48.270;9.996;2022-08-06T09:51:03;4.68;;;2.95;;
21301;SDS011;10810;48.270;9.996;2022-08-06T09:53:51;4.43;;;2.60;;
21301;SDS011;10810;48.270;9.996;2022-08-06T09:56:18;6.25;;;3.10;;
21301;SDS011;10810;48.270;9.996;2022-08-06T09:58:56;4.65;;;2.53;;
21301;SDS011;10810;48.270;9.996;2022-08-06T10:01:37;3.88;;;2.60;;
21301;SDS011;10810;48.270;9.996;2022-08-06T10:04:06;4.30;;;2.70;;
21301;SDS011;10810;48.270;9.996;2022-08-06T10:06:50;4.20;;;2.65;;
21301;SDS011;10810;48.270;9.996;2022-08-06T10:09:20;5.80;;;3.15;;
21301;SDS011;10810;48.270;9.996;2022-08-06T10:11:49;4.13;;;2.55;;
21301;SDS011;10810;48.270;9.996;2022-08-06T10:14:37;4.35;;;2.83;;
21301;SDS011;10810;48.270;9.996;2022-08-06T10:17:17;4.03;;;2.65;;
21301;SDS011;10810;48.270;9.996;2022-08-06T10:20:03;4.90;;;2.80;;
21301;SDS011;10810;48.270;9.996;2022-08-06T10:22:31;7.78;;;3.20;;
21301;SDS011;10810;48.270;9.996;2022-08-06T10:25:00;4.78;;;3.00;;
21301;SDS011;10810;48.270;9.996;2022-08-06T10:27:29;3.92;;;2.60;;
21301;SDS011;10810;48.270;9.996;2022-08-06T10:30:01;5.15;;;3.25;;
21301;SDS011;10810;48.270;9.996;2022-08-06T10:32:33;5.40;;;2.97;;
21301;SDS011;10810;48.270;9.996;2022-08-06T10:35:07;4.50;;;2.53;;
21301;SDS011;10810;48.270;9.996;2022-08-06T10:37:37;5.00;;;2.88;;
21301;SDS011;10810;48.270;9.996;2022-08-06T10:40:48;4.00;;;2.47;;
21301;SDS011;10810;48.270;9.996;2022-08-06T10:42:56;4.80;;;2.85;;
21301;SDS011;10810;48.270;9.996;2022-08-06T10:45:38;4.28;;;2.65;;
21301;SDS011;10810;48.270;9.996;2022-08-06T10:54:11;4.60;;;3.05;;
21301;SDS011;10810;48.270;9.996;2022-08-06T10:57:00;4.95;;;2.80;;
21301;SDS011;10810;48.270;9.996;2022-08-06T10:59:29;5.22;;;3.17;;
21301;SDS011;10810;48.270;9.996;2022-08-06T11:02:12;6.78;;;2.90;;
21301;SDS011;10810;48.270;9.996;2022-08-06T11:05:17;4.43;;;2.92;;
21301;SDS011;10810;48.270;9.996;2022-08-06T11:08:05;4.00;;;3.00;;
21301;SDS011;10810;48.270;9.996;2022-08-06T11:13:48;5.20;;;3.25;;
21301;SDS011;10810;48.270;9.996;2022-08-06T11:16:39;5.00;;;3.13;;
21301;SDS011;10810;48.270;9.996;2022-08-06T11:19:08;4.72;;;2.60;;
21301;SDS011;10810;48.270;9.996;2022-08-06T11:21:51;5.38;;;2.85;;
21301;SDS011;10810;48.270;9.996;2022-08-06T11:24:52;5.88;;;3.03;;
21301;SDS011;10810;48.270;9.996;2022-08-06T11:30:17;4.65;;;3.00;;
21301;SDS011;10810;48.270;9.996;2022-08-06T11:32:46;4.07;;;2.80;;
21301;SDS011;10810;48.270;9.996;2022-08-06T11:38:07;4.68;;;2.90;;
21301;SDS011;10810;48.270;9.996;2022-08-06T11:40:57;7.40;;;3.00;;
21301;SDS011;10810;48.270;9.996;2022-08-06T11:46:18;4.63;;;2.90;;
21301;SDS011;10810;48.270;9.996;2022-08-06T11:51:44;4.53;;;3.10;;
21301;SDS011;10810;48.270;9.996;2022-08-06T11:54:14;6.30;;;2.83;;
21301;SDS011;10810;48.270;9.996;2022-08-06T12:02:53;6.05;;;3.22;;
21301;SDS011;10810;48.270;9.996;2022-08-06T12:05:37;6.57;;;3.30;;
21301;SDS011;10810;48.270;9.996;2022-08-06T12:08:14;5.00;;;3.15;;
21301;SDS011;10810;48.270;9.996;2022-08-06T12:13:55;6.00;;;2.85;;
21301;SDS011;10810;48.270;9.996;2022-08-06T12:16:26;4.28;;;2.80;;
21301;SDS011;10810;48.270;9.996;2022-08-06T12:19:03;5.65;;;3.10;;
21301;SDS011;10810;48.270;9.996;2022-08-06T12:21:33;4.13;;;2.60;;
21301;SDS011;10810;48.270;9.996;2022-08-06T12:24:04;4.32;;;2.90;;
21301;SDS011;10810;48.270;9.996;2022-08-06T12:26:32;4.88;;;2.95;;
21301;SDS011;10810;48.270;9.996;2022-08-06T12:29:00;4.13;;;2.55;;
21301;SDS011;10810;48.270;9.996;2022-08-06T12:31:38;4.85;;;3.00;;
21301;SDS011;10810;48.270;9.996;2022-08-06T12:34:18;4.47;;;2.95;;
21301;SDS011;10810;48.270;9.996;2022-08-06T12:36:50;7.97;;;3.35;;
21301;SDS011;10810;48.270;9.996;2022-08-06T12:39:20;5.45;;;3.03;;
21301;SDS011;10810;48.270;9.996;2022-08-06T12:42:20;6.03;;;2.88;;
21301;SDS011;10810;48.270;9.996;2022-08-06T12:44:48;4.32;;;2.88;;
21301;SDS011;10810;48.270;9.996;2022-08-06T12:47:15;12.00;;;3.03;;
21301;SDS011;10810;48.270;9.996;2022-08-06T12:49:54;4.82;;;2.88;;
21301;SDS011;10810;48.270;9.996;2022-08-06T12:52:25;4.45;;;2.85;;
21301;SDS011;10810;48.270;9.996;2022-08-06T12:55:03;3.88;;;2.42;;
21301;SDS011;10810;48.270;9.996;2022-08-06T12:57:59;5.32;;;2.75;;
21301;SDS011;10810;48.270;9.996;2022-08-06T13:00:41;4.32;;;2.80;;
21301;SDS011;10810;48.270;9.996;2022-08-06T13:03:18;5.10;;;2.67;;
21301;SDS011;10810;48.270;9.996;2022-08-06T13:05:59;5.53;;;3.08;;
21301;SDS011;10810;48.270;9.996;2022-08-06T13:08:35;3.63;;;2.42;;
21301;SDS011;10810;48.270;9.996;2022-08-06T13:11:11;3.80;;;2.42;;
21301;SDS011;10810;48.270;9.996;2022-08-06T13:13:41;3.83;;;2.72;;
21301;SDS011;10810;48.270;9.996;2022-08-06T13:16:13;5.53;;;2.88;;
21301;SDS011;10810;48.270;9.996;2022-08-06T13:21:56;4.28;;;2.90;;
21301;SDS011;10810;48.270;9.996;2022-08-06T13:24:25;4.82;;;2.70;;
21301;SDS011;10810;48.270;9.996;2022-08-06T13:26:54;4.05;;;2.70;;
21301;SDS011;10810;48.270;9.996;2022-08-06T13:29:36;5.22;;;2.78;;
21301;SDS011;10810;48.270;9.996;2022-08-06T13:32:11;4.00;;;2.50;;
21301;SDS011;10810;48.270;9.996;2022-08-06T13:34:46;4.68;;;2.88;;
21301;SDS011;10810;48.270;9.996;2022-08-06T13:37:36;4.63;;;2.63;;
21301;SDS011;10810;48.270;9.996;2022-08-06T13:40:08;3.85;;;2.55;;
21301;SDS011;10810;48.270;9.996;2022-08-06T13:42:46;3.80;;;2.35;;
21301;SDS011;10810;48.270;9.996;2022-08-06T13:45:21;4.85;;;2.70;;
21301;SDS011;10810;48.270;9.996;2022-08-06T13:48:00;4.68;;;2.95;;
21301;SDS011;10810;48.270;9.996;2022-08-06T13:50:31;4.30;;;2.83;;
21301;SDS011;10810;48.270;9.996;2022-08-06T13:53:03;4.13;;;2.70;;
21301;SDS011;10810;48.270;9.996;2022-08-06T13:55:42;5.20;;;2.90;;
21301;SDS011;10810;48.270;9.996;2022-08-06T13:58:14;4.57;;;2.90;;
21301;SDS011;10810;48.270;9.996;2022-08-06T14:00:43;5.38;;;3.10;;
21301;SDS011;10810;48.270;9.996;2022-08-06T14:03:11;4.53;;;2.83;;
21301;SDS011;10810;48.270;9.996;2022-08-06T14:05:39;6.07;;;3.03;;
21301;SDS011;10810;48.270;9.996;2022-08-06T14:08:08;3.97;;;2.50;;
21301;SDS011;10810;48.270;9.996;2022-08-06T14:10:41;5.95;;;3.00;;
21301;SDS011;10810;48.270;9.996;2022-08-06T14:13:08;4.50;;;3.05;;
21301;SDS011;10810;48.270;9.996;2022-08-06T14:15:45;4.18;;;2.83;;
21301;SDS011;10810;48.270;9.996;2022-08-06T14:18:16;4.85;;;3.08;;
21301;SDS011;10810;48.270;9.996;2022-08-06T14:20:46;4.22;;;2.78;;
21301;SDS011;10810;48.270;9.996;2022-08-06T14:23:16;4.47;;;3.30;;
21301;SDS011;10810;48.270;9.996;2022-08-06T14:25:49;6.60;;;3.03;;
21301;SDS011;10810;48.270;9.996;2022-08-06T14:28:27;5.28;;;3.03;;
21301;SDS011;10810;48.270;9.996;2022-08-06T14:30:58;4.95;;;3.25;;
21301;SDS011;10810;48.270;9.996;2022-08-06T14:33:40;4.63;;;2.90;;
21301;SDS011;10810;48.270;9.996;2022-08-06T14:36:16;5.05;;;2.90;;
21301;SDS011;10810;48.270;9.996;2022-08-06T14:38:49;6.55;;;3.00;;
21301;SDS011;10810;48.270;9.996;2022-08-06T14:41:23;4.43;;;2.80;;
21301;SDS011;10810;48.270;9.996;2022-08-06T14:44:09;4.32;;;2.75;;
21301;SDS011;10810;48.270;9.996;2022-08-06T14:47:00;3.95;;;2.95;;
21301;SDS011;10810;48.270;9.996;2022-08-06T14:49:27;3.75;;;2.63;;
21301;SDS011;10810;48.270;9.996;2022-08-06T14:51:54;3.83;;;2.70;;
21301;SDS011;10810;48.270;9.996;2022-08-06T14:54:23;3.55;;;2.53;;
21301;SDS011;10810;48.270;9.996;2022-08-06T14:56:51;4.15;;;2.47;;
21301;SDS011;10810;48.270;9.996;2022-08-06T14:59:21;3.92;;;2.72;;
21301;SDS011;10810;48.270;9.996;2022-08-06T15:01:57;6.55;;;2.63;;
21301;SDS011;10810;48.270;9.996;2022-08-06T15:04:32;3.83;;;2.53;;
21301;SDS011;10810;48.270;9.996;2022-08-06T15:07:17;3.47;;;2.60;;
21301;SDS011;10810;48.270;9.996;2022-08-06T15:10:10;3.10;;;2.30;;
21301;SDS011;10810;48.270;9.996;2022-08-06T15:12:46;3.90;;;2.50;;
21301;SDS011;10810;48.270;9.996;2022-08-06T15:15:13;4.18;;;2.50;;
21301;SDS011;10810;48.270;9.996;2022-08-06T15:17:48;3.88;;;2.60;;
21301;SDS011;10810;48.270;9.996;2022-08-06T15:20:22;4.35;;;2.60;;
21301;SDS011;10810;48.270;9.996;2022-08-06T15:22:52;3.85;;;2.45;;
21301;SDS011;10810;48.270;9.996;2022-08-06T15:25:35;4.30;;;2.60;;
21301;SDS011;10810;48.270;9.996;2022-08-06T15:28:06;4.07;;;2.80;;
21301;SDS011;10810;48.270;9.996;2022-08-06T15:30:34;3.53;;;2.38;;
21301;SDS011;10810;48.270;9.996;2022-08-06T15:33:07;4.72;;;2.70;;
21301;SDS011;10810;48.270;9.996;2022-08-06T15:35:51;3.75;;;2.25;;
21301;SDS011;10810;48.270;9.996;2022-08-06T15:38:20;4.75;;;2.28;;
21301;SDS011;10810;48.270;9.996;2022-08-06T15:40:55;4.35;;;2.35;;
21301;SDS011;10810;48.270;9.996;2022-08-06T15:43:34;4.15;;;2.40;;
21301;SDS011;10810;48.270;9.996;2022-08-06T15:46:16;3.85;;;2.35;;
21301;SDS011;10810;48.270;9.996;2022-08-06T15:49:01;4.35;;;2.58;;
21301;SDS011;10810;48.270;9.996;2022-08-06T15:51:34;9.85;;;2.58;;
21301;SDS011;10810;48.270;9.996;2022-08-06T15:54:13;4.75;;;2.38;;
21301;SDS011;10810;48.270;9.996;2022-08-06T15:59:46;4.25;;;2.70;;
21301;SDS011;10810;48.270;9.996;2022-08-06T16:02:29;3.92;;;2.40;;
21301;SDS011;10810;48.270;9.996;2022-08-06T16:04:58;3.83;;;2.40;;
21301;SDS011;10810;48.270;9.996;2022-08-06T16:07:26;3.63;;;2.40;;
21301;SDS011;10810;48.270;9.996;2022-08-06T16:10:08;4.20;;;2.42;;
21301;SDS011;10810;48.270;9.996;2022-08-06T16:12:47;4.00;;;2.33;;
21301;SDS011;10810;48.270;9.996;2022-08-06T16:15:38;4.07;;;2.50;;
21301;SDS011;10810;48.270;9.996;2022-08-06T16:18:07;4.15;;;2.75;;
21301;SDS011;10810;48.270;9.996;2022-08-06T16:20:58;4.07;;;2.35;;
21301;SDS011;10810;48.270;9.996;2022-08-06T16:23:29;4.07;;;2.28;;
21301;SDS011;10810;48.270;9.996;2022-08-06T16:26:06;3.92;;;2.53;;
21301;SDS011;10810;48.270;9.996;2022-08-06T16:28:36;2.55;;;2.00;;
21301;SDS011;10810;48.270;9.996;2022-08-06T16:31:08;3.47;;;2.35;;
21301;SDS011;10810;48.270;9.996;2022-08-06T16:33:49;5.28;;;2.08;;
21301;SDS011;10810;48.270;9.996;2022-08-06T16:36:40;4.18;;;1.95;;
21301;SDS011;10810;48.270;9.996;2022-08-06T16:39:22;3.47;;;2.17;;
21301;SDS011;10810;48.270;9.996;2022-08-06T16:42:21;3.10;;;2.25;;
21301;SDS011;10810;48.270;9.996;2022-08-06T16:45:11;3.22;;;2.47;;
21301;SDS011;10810;48.270;9.996;2022-08-06T16:47:40;4.22;;;2.83;;
21301;SDS011;10810;48.270;9.996;2022-08-06T16:50:08;3.42;;;2.47;;